sensor_id;sensor_type;location;lat;lon;timestamp;temperature;humidity
26982;DHT22;14533;50.848;4.380;2022-09-29T00:02:24;11.60;99.90
26982;DHT22;14533;50.848;4.380;2022-09-29T00:04:51;11.50;99.90
26982;DHT22;14533;50.848;4.380;2022-09-29T00:07:17;11.60;99.90
26982;DHT22;14533;50.848;4.380;2022-09-29T00:09:43;11.60;99.90
26982;DHT22;14533;50.848;4.380;2022-09-29T00:12:08;11.30;99.90
26982;DHT22;14533;50.848;4.380;2022-09-29T00:14:34;11.00;99.90
26982;DHT22;14533;50.848;4.380;2022-09-29T00:17:00;11.10;99.90
26982;DHT22;14533;50.848;4.380;2022-09-29T00:19:25;11.20;99.90
26982;DHT22;14533;50.848;4.380;2022-09-29T00:21:53;11.00;99.90
26982;DHT22;14533;50.848;4.380;2022-09-29T00:24:18;11.00;99.90
26982;DHT22;14533;50.848;4.380;2022-09-29T00:26:44;11.10;99.90
26982;DHT22;14533;50.848;4.380;2022-09-29T00:29:11;11.20;99.90
26982;DHT22;14533;50.848;4.380;2022-09-29T00:31:37;11.10;99.90
26982;DHT22;14533;50.848;4.380;2022-09-29T00:34:03;11.10;99.90
26982;DHT22;14533;50.848;4.380;2022-09-29T00:36:29;11.20;99.90
26982;DHT22;14533;50.848;4.380;2022-09-29T00:38:56;11.20;99.90
26982;DHT22;14533;50.848;4.380;2022-09-29T00:41:30;11.30;99.90
26982;DHT22;14533;50.848;4.380;2022-09-29T00:46:33;11.80;99.90
26982;DHT22;14533;50.848;4.380;2022-09-29T00:49:10;11.40;99.90
26982;DHT22;14533;50.848;4.380;2022-09-29T00:51:44;11.10;99.90
26982;DHT22;14533;50.848;4.380;2022-09-29T00:54:13;11.10;99.90
26982;DHT22;14533;50.848;4.380;2022-09-29T00:56:40;11.10;99.90
26982;DHT22;14533;50.848;4.380;2022-09-29T00:59:13;11.00;99.90
26982;DHT22;14533;50.848;4.380;2022-09-29T01:01:40;11.00;99.90
26982;DHT22;14533;50.848;4.380;2022-09-29T01:04:10;10.90;99.90
26982;DHT22;14533;50.848;4.380;2022-09-29T01:06:46;10.90;99.90
26982;DHT22;14533;50.848;4.380;2022-09-29T01:09:16;10.90;99.90
26982;DHT22;14533;50.848;4.380;2022-09-29T01:11:42;10.90;99.90
26982;DHT22;14533;50.848;4.380;2022-09-29T01:14:09;11.10;99.90
26982;DHT22;14533;50.848;4.380;2022-09-29T01:16:36;11.30;99.90
26982;DHT22;14533;50.848;4.380;2022-09-29T01:19:10;11.20;99.90
26982;DHT22;14533;50.848;4.380;2022-09-29T01:24:35;11.30;99.90
26982;DHT22;14533;50.848;4.380;2022-09-29T01:30:21;10.90;99.90
26982;DHT22;14533;50.848;4.380;2022-09-29T01:35:51;10.60;99.90
26982;DHT22;14533;50.848;4.380;2022-09-29T01:38:36;10.60;99.90
26982;DHT22;14533;50.848;4.380;2022-09-29T01:41:27;10.70;99.90
26982;DHT22;14533;50.848;4.380;2022-09-29T01:44:41;10.80;99.90
26982;DHT22;14533;50.848;4.380;2022-09-29T01:47:24;10.80;99.90
26982;DHT22;14533;50.848;4.380;2022-09-29T01:49:49;10.80;99.90
26982;DHT22;14533;50.848;4.380;2022-09-29T01:52:22;10.70;99.90
26982;DHT22;14533;50.848;4.380;2022-09-29T01:55:17;10.60;99.90
26982;DHT22;14533;50.848;4.380;2022-09-29T02:00:14;10.50;99.90
26982;DHT22;14533;50.848;4.380;2022-09-29T02:03:00;10.40;99.90
26982;DHT22;14533;50.848;4.380;2022-09-29T02:05:38;10.40;99.90
26982;DHT22;14533;50.848;4.380;2022-09-29T02:08:53;10.40;99.90
26982;DHT22;14533;50.848;4.380;2022-09-29T02:11:05;10.20;99.90
26982;DHT22;14533;50.848;4.380;2022-09-29T02:13:39;10.10;99.90
26982;DHT22;14533;50.848;4.380;2022-09-29T02:16:09;9.90;99.90
26982;DHT22;14533;50.848;4.380;2022-09-29T02:19:18;9.90;99.90
26982;DHT22;14533;50.848;4.380;2022-09-29T02:21:45;10.00;99.90
26982;DHT22;14533;50.848;4.380;2022-09-29T02:24:11;10.10;99.90
26982;DHT22;14533;50.848;4.380;2022-09-29T02:26:38;10.00;99.90
26982;DHT22;14533;50.848;4.380;2022-09-29T02:29:07;10.20;99.90
26982;DHT22;14533;50.848;4.380;2022-09-29T02:31:35;10.30;99.90
26982;DHT22;14533;50.848;4.380;2022-09-29T02:34:03;10.20;99.90
26982;DHT22;14533;50.848;4.380;2022-09-29T02:36:33;10.30;99.90
26982;DHT22;14533;50.848;4.380;2022-09-29T02:39:08;10.20;99.90
26982;DHT22;14533;50.848;4.380;2022-09-29T02:41:53;10.30;99.90
26982;DHT22;14533;50.848;4.380;2022-09-29T02:49:53;10.20;99.90
26982;DHT22;14533;50.848;4.380;2022-09-29T02:55:19;10.10;99.90
26982;DHT22;14533;50.848;4.380;2022-09-29T02:57:58;10.00;99.90
26982;DHT22;14533;50.848;4.380;2022-09-29T03:00:25;10.20;99.90
26982;DHT22;14533;50.848;4.380;2022-09-29T03:02:51;10.20;99.90
26982;DHT22;14533;50.848;4.380;2022-09-29T03:05:19;9.90;99.90
26982;DHT22;14533;50.848;4.380;2022-09-29T03:07:45;9.90;99.90
26982;DHT22;14533;50.848;4.380;2022-09-29T03:10:13;9.90;99.90
26982;DHT22;14533;50.848;4.380;2022-09-29T03:12:39;10.10;99.90
26982;DHT22;14533;50.848;4.380;2022-09-29T03:15:06;10.10;99.90
26982;DHT22;14533;50.848;4.380;2022-09-29T03:17:32;10.10;99.90
26982;DHT22;14533;50.848;4.380;2022-09-29T03:19:58;10.00;99.90
26982;DHT22;14533;50.848;4.380;2022-09-29T03:22:25;10.10;99.90
26982;DHT22;14533;50.848;4.380;2022-09-29T03:24:51;10.00;99.90
26982;DHT22;14533;50.848;4.380;2022-09-29T03:27:16;10.00;99.90
26982;DHT22;14533;50.848;4.380;2022-09-29T03:29:42;10.00;99.90
26982;DHT22;14533;50.848;4.380;2022-09-29T03:32:08;10.00;99.90
26982;DHT22;14533;50.848;4.380;2022-09-29T03:34:34;10.10;99.90
26982;DHT22;14533;50.848;4.380;2022-09-29T03:37:00;10.30;99.90
26982;DHT22;14533;50.848;4.380;2022-09-29T03:39:26;10.40;99.90
26982;DHT22;14533;50.848;4.380;2022-09-29T03:41:53;10.40;99.90
26982;DHT22;14533;50.848;4.380;2022-09-29T03:44:18;10.50;99.90
26982;DHT22;14533;50.848;4.380;2022-09-29T03:46:44;10.60;99.90
26982;DHT22;14533;50.848;4.380;2022-09-29T03:49:13;10.60;99.90
26982;DHT22;14533;50.848;4.380;2022-09-29T03:51:40;10.40;99.90
26982;DHT22;14533;50.848;4.380;2022-09-29T03:54:06;10.30;99.90
26982;DHT22;14533;50.848;4.380;2022-09-29T03:56:32;10.20;99.90
26982;DHT22;14533;50.848;4.380;2022-09-29T03:58:57;10.20;99.90
26982;DHT22;14533;50.848;4.380;2022-09-29T04:01:23;10.10;99.90
26982;DHT22;14533;50.848;4.380;2022-09-29T04:03:49;10.10;99.90
26982;DHT22;14533;50.848;4.380;2022-09-29T04:06:15;10.10;99.90
26982;DHT22;14533;50.848;4.380;2022-09-29T04:08:40;10.00;99.90
26982;DHT22;14533;50.848;4.380;2022-09-29T04:11:06;9.90;99.90
26982;DHT22;14533;50.848;4.380;2022-09-29T04:13:34;9.80;99.90
26982;DHT22;14533;50.848;4.380;2022-09-29T04:16:01;9.90;99.90
26982;DHT22;14533;50.848;4.380;2022-09-29T04:18:27;9.90;99.90
26982;DHT22;14533;50.848;4.380;2022-09-29T04:20:54;9.70;99.90
26982;DHT22;14533;50.848;4.380;2022-09-29T04:23:22;9.70;99.90
26982;DHT22;14533;50.848;4.380;2022-09-29T04:25:48;10.00;99.90
26982;DHT22;14533;50.848;4.380;2022-09-29T04:28:14;10.10;99.90
26982;DHT22;14533;50.848;4.380;2022-09-29T04:30:40;10.10;99.90
26982;DHT22;14533;50.848;4.380;2022-09-29T04:33:06;10.00;99.90
26982;DHT22;14533;50.848;4.380;2022-09-29T04:35:31;10.00;99.90
26982;DHT22;14533;50.848;4.380;2022-09-29T04:37:58;10.20;99.90
26982;DHT22;14533;50.848;4.380;2022-09-29T04:40:24;10.00;99.90
26982;DHT22;14533;50.848;4.380;2022-09-29T04:42:51;9.80;99.90
26982;DHT22;14533;50.848;4.380;2022-09-29T04:45:16;10.00;99.90
26982;DHT22;14533;50.848;4.380;2022-09-29T04:47:42;10.10;99.90
26982;DHT22;14533;50.848;4.380;2022-09-29T04:50:08;10.20;99.90
26982;DHT22;14533;50.848;4.380;2022-09-29T04:52:34;10.20;99.90
26982;DHT22;14533;50.848;4.380;2022-09-29T04:55:01;10.30;99.90
26982;DHT22;14533;50.848;4.380;2022-09-29T04:57:27;10.30;99.90
26982;DHT22;14533;50.848;4.380;2022-09-29T04:59:52;10.20;99.90
26982;DHT22;14533;50.848;4.380;2022-09-29T05:02:18;10.20;99.90
26982;DHT22;14533;50.848;4.380;2022-09-29T05:04:44;10.20;99.90
26982;DHT22;14533;50.848;4.380;2022-09-29T05:07:12;10.40;99.90
26982;DHT22;14533;50.848;4.380;2022-09-29T05:09:38;10.50;99.90
26982;DHT22;14533;50.848;4.380;2022-09-29T05:12:04;10.40;99.90
26982;DHT22;14533;50.848;4.380;2022-09-29T05:14:32;10.30;99.90
26982;DHT22;14533;50.848;4.380;2022-09-29T05:16:57;10.20;99.90
26982;DHT22;14533;50.848;4.380;2022-09-29T05:19:24;10.20;99.90
26982;DHT22;14533;50.848;4.380;2022-09-29T05:21:50;10.00;99.90
26982;DHT22;14533;50.848;4.380;2022-09-29T05:24:16;10.00;99.90
26982;DHT22;14533;50.848;4.380;2022-09-29T05:26:42;10.00;99.90
26982;DHT22;14533;50.848;4.380;2022-09-29T05:29:07;10.10;99.90
26982;DHT22;14533;50.848;4.380;2022-09-29T05:31:34;10.00;99.90
26982;DHT22;14533;50.848;4.380;2022-09-29T05:34:00;10.00;99.90
26982;DHT22;14533;50.848;4.380;2022-09-29T05:36:25;10.10;99.90
26982;DHT22;14533;50.848;4.380;2022-09-29T05:38:52;10.10;99.90
26982;DHT22;14533;50.848;4.380;2022-09-29T05:41:18;10.20;99.90
26982;DHT22;14533;50.848;4.380;2022-09-29T05:43:48;10.30;99.90
26982;DHT22;14533;50.848;4.380;2022-09-29T05:46:14;10.10;99.90
26982;DHT22;14533;50.848;4.380;2022-09-29T05:48:41;10.20;99.90
26982;DHT22;14533;50.848;4.380;2022-09-29T05:51:15;10.00;99.90
26982;DHT22;14533;50.848;4.380;2022-09-29T05:53:41;9.90;99.90
26982;DHT22;14533;50.848;4.380;2022-09-29T05:56:11;9.90;99.90
26982;DHT22;14533;50.848;4.380;2022-09-29T05:58:38;10.00;99.90
26982;DHT22;14533;50.848;4.380;2022-09-29T06:01:08;10.00;99.90
26982;DHT22;14533;50.848;4.380;2022-09-29T06:03:35;10.30;99.90
26982;DHT22;14533;50.848;4.380;2022-09-29T06:06:14;10.40;99.90
26982;DHT22;14533;50.848;4.380;2022-09-29T06:08:43;10.40;99.90
26982;DHT22;14533;50.848;4.380;2022-09-29T06:11:12;10.30;99.90
26982;DHT22;14533;50.848;4.380;2022-09-29T06:13:43;10.30;99.90
26982;DHT22;14533;50.848;4.380;2022-09-29T06:16:10;10.30;99.90
26982;DHT22;14533;50.848;4.380;2022-09-29T06:18:37;10.30;99.90
26982;DHT22;14533;50.848;4.380;2022-09-29T06:21:05;10.50;99.90
26982;DHT22;14533;50.848;4.380;2022-09-29T06:23:31;10.60;99.90
26982;DHT22;14533;50.848;4.380;2022-09-29T06:25:58;10.60;99.90
26982;DHT22;14533;50.848;4.380;2022-09-29T06:28:26;10.50;99.90
26982;DHT22;14533;50.848;4.380;2022-09-29T06:30:58;10.50;99.90
26982;DHT22;14533;50.848;4.380;2022-09-29T06:33:25;10.50;99.90
26982;DHT22;14533;50.848;4.380;2022-09-29T06:35:51;10.40;99.90
26982;DHT22;14533;50.848;4.380;2022-09-29T06:38:36;10.40;99.90
26982;DHT22;14533;50.848;4.380;2022-09-29T06:41:01;10.60;99.90
26982;DHT22;14533;50.848;4.380;2022-09-29T06:43:27;10.60;99.90
26982;DHT22;14533;50.848;4.380;2022-09-29T06:45:53;10.60;99.90
26982;DHT22;14533;50.848;4.380;2022-09-29T06:48:18;10.60;99.90
26982;DHT22;14533;50.848;4.380;2022-09-29T06:50:44;10.70;99.90
26982;DHT22;14533;50.848;4.380;2022-09-29T06:53:10;10.60;99.90
26982;DHT22;14533;50.848;4.380;2022-09-29T06:55:35;10.50;99.90
26982;DHT22;14533;50.848;4.380;2022-09-29T06:58:01;10.50;99.90
26982;DHT22;14533;50.848;4.380;2022-09-29T07:00:26;10.60;99.90
26982;DHT22;14533;50.848;4.380;2022-09-29T07:02:52;10.70;99.90
26982;DHT22;14533;50.848;4.380;2022-09-29T07:05:19;11.00;99.90
26982;DHT22;14533;50.848;4.380;2022-09-29T07:07:47;11.20;99.90
26982;DHT22;14533;50.848;4.380;2022-09-29T07:10:13;11.50;99.90
26982;DHT22;14533;50.848;4.380;2022-09-29T07:12:39;11.80;99.90
26982;DHT22;14533;50.848;4.380;2022-09-29T07:15:05;12.00;99.90
26982;DHT22;14533;50.848;4.380;2022-09-29T07:17:32;12.00;99.90
26982;DHT22;14533;50.848;4.380;2022-09-29T07:19:58;11.90;99.90
26982;DHT22;14533;50.848;4.380;2022-09-29T07:22:23;12.00;99.90
26982;DHT22;14533;50.848;4.380;2022-09-29T07:24:49;11.90;99.90
26982;DHT22;14533;50.848;4.380;2022-09-29T07:27:18;11.80;99.90
26982;DHT22;14533;50.848;4.380;2022-09-29T07:29:49;11.60;99.90
26982;DHT22;14533;50.848;4.380;2022-09-29T07:32:15;11.40;99.90
26982;DHT22;14533;50.848;4.380;2022-09-29T07:34:41;11.40;99.90
26982;DHT22;14533;50.848;4.380;2022-09-29T07:37:07;11.60;99.90
26982;DHT22;14533;50.848;4.380;2022-09-29T07:39:34;11.70;99.90
26982;DHT22;14533;50.848;4.380;2022-09-29T07:41:59;11.60;99.90
26982;DHT22;14533;50.848;4.380;2022-09-29T07:44:25;11.60;99.90
26982;DHT22;14533;50.848;4.380;2022-09-29T07:46:51;11.60;99.90
26982;DHT22;14533;50.848;4.380;2022-09-29T07:49:17;11.60;99.90
26982;DHT22;14533;50.848;4.380;2022-09-29T07:51:43;11.50;99.90
26982;DHT22;14533;50.848;4.380;2022-09-29T07:54:09;11.60;99.90
26982;DHT22;14533;50.848;4.380;2022-09-29T07:56:35;11.60;99.90
26982;DHT22;14533;50.848;4.380;2022-09-29T07:59:00;11.40;99.90
26982;DHT22;14533;50.848;4.380;2022-09-29T08:01:28;11.60;99.90
26982;DHT22;14533;50.848;4.380;2022-09-29T08:03:54;11.40;99.90
26982;DHT22;14533;50.848;4.380;2022-09-29T08:06:22;11.30;99.90
26982;DHT22;14533;50.848;4.380;2022-09-29T08:08:48;11.60;99.90
26982;DHT22;14533;50.848;4.380;2022-09-29T08:11:16;11.80;99.90
26982;DHT22;14533;50.848;4.380;2022-09-29T08:13:42;12.00;99.90
26982;DHT22;14533;50.848;4.380;2022-09-29T08:16:10;12.10;99.90
26982;DHT22;14533;50.848;4.380;2022-09-29T08:18:38;11.90;99.90
26982;DHT22;14533;50.848;4.380;2022-09-29T08:21:05;12.00;99.90
26982;DHT22;14533;50.848;4.380;2022-09-29T08:23:35;11.70;99.90
26982;DHT22;14533;50.848;4.380;2022-09-29T08:26:03;11.60;99.90
26982;DHT22;14533;50.848;4.380;2022-09-29T08:28:30;11.50;99.90
26982;DHT22;14533;50.848;4.380;2022-09-29T08:30:56;11.50;99.90
26982;DHT22;14533;50.848;4.380;2022-09-29T08:33:21;11.60;99.90
26982;DHT22;14533;50.848;4.380;2022-09-29T08:35:55;11.60;99.90
26982;DHT22;14533;50.848;4.380;2022-09-29T08:38:21;11.70;99.90
26982;DHT22;14533;50.848;4.380;2022-09-29T08:40:46;11.70;99.90
26982;DHT22;14533;50.848;4.380;2022-09-29T08:43:20;11.80;99.90
26982;DHT22;14533;50.848;4.380;2022-09-29T08:46:19;11.70;99.90
26982;DHT22;14533;50.848;4.380;2022-09-29T08:48:41;11.80;99.90
26982;DHT22;14533;50.848;4.380;2022-09-29T08:51:41;11.80;99.90
26982;DHT22;14533;50.848;4.380;2022-09-29T08:54:16;11.90;99.90
26982;DHT22;14533;50.848;4.380;2022-09-29T08:56:45;11.90;99.90
26982;DHT22;14533;50.848;4.380;2022-09-29T08:59:10;12.10;99.90
26982;DHT22;14533;50.848;4.380;2022-09-29T09:01:59;12.30;99.90
26982;DHT22;14533;50.848;4.380;2022-09-29T09:07:25;12.50;99.90
26982;DHT22;14533;50.848;4.380;2022-09-29T09:12:46;12.50;99.90
26982;DHT22;14533;50.848;4.380;2022-09-29T09:21:23;12.80;99.90
26982;DHT22;14533;50.848;4.380;2022-09-29T09:23:56;12.70;99.90
26982;DHT22;14533;50.848;4.380;2022-09-29T09:29:01;12.80;99.90
26982;DHT22;14533;50.848;4.380;2022-09-29T09:34:04;13.30;99.90
26982;DHT22;14533;50.848;4.380;2022-09-29T09:36:43;13.70;99.90
26982;DHT22;14533;50.848;4.380;2022-09-29T09:39:30;14.20;99.90
26982;DHT22;14533;50.848;4.380;2022-09-29T09:42:00;14.70;99.90
26982;DHT22;14533;50.848;4.380;2022-09-29T09:44:41;14.90;99.90
26982;DHT22;14533;50.848;4.380;2022-09-29T09:47:27;15.50;99.90
26982;DHT22;14533;50.848;4.380;2022-09-29T09:50:04;15.80;99.90
26982;DHT22;14533;50.848;4.380;2022-09-29T09:52:42;16.30;99.90
26982;DHT22;14533;50.848;4.380;2022-09-29T09:55:22;16.80;99.90
26982;DHT22;14533;50.848;4.380;2022-09-29T10:00:42;17.30;99.90
26982;DHT22;14533;50.848;4.380;2022-09-29T10:03:10;17.50;99.90
26982;DHT22;14533;50.848;4.380;2022-09-29T10:05:47;17.60;99.90
26982;DHT22;14533;50.848;4.380;2022-09-29T10:08:25;17.30;99.90
26982;DHT22;14533;50.848;4.380;2022-09-29T10:10:54;17.00;99.90
26982;DHT22;14533;50.848;4.380;2022-09-29T10:13:27;17.00;99.90
26982;DHT22;14533;50.848;4.380;2022-09-29T10:16:14;17.00;99.90
26982;DHT22;14533;50.848;4.380;2022-09-29T10:18:43;17.00;99.90
26982;DHT22;14533;50.848;4.380;2022-09-29T10:23:58;17.30;99.90
26982;DHT22;14533;50.848;4.380;2022-09-29T10:26:36;16.80;99.90
26982;DHT22;14533;50.848;4.380;2022-09-29T10:32:02;17.20;99.90
26982;DHT22;14533;50.848;4.380;2022-09-29T10:34:29;17.70;99.90
26982;DHT22;14533;50.848;4.380;2022-09-29T10:37:05;18.10;99.90
26982;DHT22;14533;50.848;4.380;2022-09-29T10:39:45;18.40;99.90
26982;DHT22;14533;50.848;4.380;2022-09-29T10:42:33;18.40;99.90
26982;DHT22;14533;50.848;4.380;2022-09-29T10:47:51;17.20;99.90
26982;DHT22;14533;50.848;4.380;2022-09-29T10:50:34;17.70;99.90
26982;DHT22;14533;50.848;4.380;2022-09-29T10:53:03;18.30;99.90
26982;DHT22;14533;50.848;4.380;2022-09-29T10:55:34;18.30;99.90
26982;DHT22;14533;50.848;4.380;2022-09-29T10:58:23;18.30;99.90
26982;DHT22;14533;50.848;4.380;2022-09-29T11:01:02;18.40;99.90
26982;DHT22;14533;50.848;4.380;2022-09-29T11:03:32;18.20;99.90
26982;DHT22;14533;50.848;4.380;2022-09-29T11:06:02;17.90;99.90
26982;DHT22;14533;50.848;4.380;2022-09-29T11:08:29;18.50;99.90
26982;DHT22;14533;50.848;4.380;2022-09-29T11:11:35;18.70;99.90
26982;DHT22;14533;50.848;4.380;2022-09-29T11:14:07;18.50;99.90
26982;DHT22;14533;50.848;4.380;2022-09-29T11:16:57;18.40;99.90
26982;DHT22;14533;50.848;4.380;2022-09-29T11:19:26;18.30;99.90
26982;DHT22;14533;50.848;4.380;2022-09-29T11:30:26;19.00;99.40
26982;DHT22;14533;50.848;4.380;2022-09-29T11:35:44;19.50;97.00
26982;DHT22;14533;50.848;4.380;2022-09-29T11:38:33;19.70;97.40
26982;DHT22;14533;50.848;4.380;2022-09-29T11:46:59;21.00;94.10
26982;DHT22;14533;50.848;4.380;2022-09-29T12:03:32;19.10;97.00
26982;DHT22;14533;50.848;4.380;2022-09-29T12:06:24;18.90;95.90
26982;DHT22;14533;50.848;4.380;2022-09-29T12:16:31;18.30;99.90
26982;DHT22;14533;50.848;4.380;2022-09-29T12:19:02;18.50;99.70
26982;DHT22;14533;50.848;4.380;2022-09-29T12:24:03;18.20;99.90
26982;DHT22;14533;50.848;4.380;2022-09-29T12:26:30;18.30;99.90
26982;DHT22;14533;50.848;4.380;2022-09-29T12:29:01;18.30;99.90
26982;DHT22;14533;50.848;4.380;2022-09-29T12:31:41;18.10;99.90
26982;DHT22;14533;50.848;4.380;2022-09-29T12:37:32;18.10;99.90
26982;DHT22;14533;50.848;4.380;2022-09-29T12:45:55;17.30;99.90
26982;DHT22;14533;50.848;4.380;2022-09-29T12:51:53;17.40;99.90
26982;DHT22;14533;50.848;4.380;2022-09-29T12:54:49;17.20;99.90
26982;DHT22;14533;50.848;4.380;2022-09-29T12:57:24;17.10;99.90
26982;DHT22;14533;50.848;4.380;2022-09-29T13:00:05;17.20;99.90
26982;DHT22;14533;50.848;4.380;2022-09-29T13:03:02;17.60;99.90
26982;DHT22;14533;50.848;4.380;2022-09-29T13:24:41;18.00;99.30
26982;DHT22;14533;50.848;4.380;2022-09-29T13:27:22;17.90;99.60
26982;DHT22;14533;50.848;4.380;2022-09-29T13:32:28;17.70;99.40
26982;DHT22;14533;50.848;4.380;2022-09-29T13:34:57;17.60;99.90
26982;DHT22;14533;50.848;4.380;2022-09-29T13:37:27;17.20;99.90
26982;DHT22;14533;50.848;4.380;2022-09-29T13:40:05;17.40;99.90
26982;DHT22;14533;50.848;4.380;2022-09-29T13:45:37;17.80;99.90
26982;DHT22;14533;50.848;4.380;2022-09-29T13:50:55;17.70;99.90
26982;DHT22;14533;50.848;4.380;2022-09-29T14:00:53;17.60;99.90
26982;DHT22;14533;50.848;4.380;2022-09-29T14:03:40;17.50;99.90
26982;DHT22;14533;50.848;4.380;2022-09-29T14:06:16;17.50;99.90
26982;DHT22;14533;50.848;4.380;2022-09-29T14:11:21;16.90;99.90
26982;DHT22;14533;50.848;4.380;2022-09-29T14:14:20;17.00;99.90
26982;DHT22;14533;50.848;4.380;2022-09-29T14:17:06;17.20;99.90
26982;DHT22;14533;50.848;4.380;2022-09-29T14:19:35;17.30;99.90
26982;DHT22;14533;50.848;4.380;2022-09-29T14:22:03;17.50;99.90
26982;DHT22;14533;50.848;4.380;2022-09-29T14:27:32;17.70;99.90
26982;DHT22;14533;50.848;4.380;2022-09-29T14:35:35;18.20;99.90
26982;DHT22;14533;50.848;4.380;2022-09-29T14:38:17;17.80;99.90
26982;DHT22;14533;50.848;4.380;2022-09-29T14:43:46;16.90;99.90
26982;DHT22;14533;50.848;4.380;2022-09-29T15:00:18;16.90;99.90
26982;DHT22;14533;50.848;4.380;2022-09-29T15:02:51;16.90;99.90
26982;DHT22;14533;50.848;4.380;2022-09-29T15:05:30;16.80;99.90
26982;DHT22;14533;50.848;4.380;2022-09-29T15:07:56;16.80;99.90
26982;DHT22;14533;50.848;4.380;2022-09-29T15:10:27;16.90;99.90
26982;DHT22;14533;50.848;4.380;2022-09-29T15:13:22;17.30;99.90
26982;DHT22;14533;50.848;4.380;2022-09-29T15:15:49;17.70;99.90
26982;DHT22;14533;50.848;4.380;2022-09-29T15:18:33;17.70;99.90
26982;DHT22;14533;50.848;4.380;2022-09-29T15:22:07;17.80;99.90
26982;DHT22;14533;50.848;4.380;2022-09-29T15:25:04;17.60;99.90
26982;DHT22;14533;50.848;4.380;2022-09-29T15:27:12;17.30;99.90
26982;DHT22;14533;50.848;4.380;2022-09-29T15:29:38;17.10;99.90
26982;DHT22;14533;50.848;4.380;2022-09-29T15:32:22;16.80;99.90
26982;DHT22;14533;50.848;4.380;2022-09-29T15:34:50;16.70;99.90
26982;DHT22;14533;50.848;4.380;2022-09-29T15:37:16;16.50;99.90
26982;DHT22;14533;50.848;4.380;2022-09-29T15:39:47;16.40;99.90
26982;DHT22;14533;50.848;4.380;2022-09-29T15:42:18;16.40;99.90
26982;DHT22;14533;50.848;4.380;2022-09-29T15:44:51;16.20;99.90
26982;DHT22;14533;50.848;4.380;2022-09-29T15:47:26;16.40;99.90
26982;DHT22;14533;50.848;4.380;2022-09-29T15:49:53;16.40;99.90
26982;DHT22;14533;50.848;4.380;2022-09-29T15:52:19;16.40;99.90
26982;DHT22;14533;50.848;4.380;2022-09-29T15:54:53;16.20;99.90
26982;DHT22;14533;50.848;4.380;2022-09-29T15:57:41;16.20;99.90
26982;DHT22;14533;50.848;4.380;2022-09-29T16:05:41;16.50;99.90
26982;DHT22;14533;50.848;4.380;2022-09-29T16:08:22;16.70;99.90
26982;DHT22;14533;50.848;4.380;2022-09-29T16:10:54;16.60;99.90
26982;DHT22;14533;50.848;4.380;2022-09-29T16:13:25;16.60;99.90
26982;DHT22;14533;50.848;4.380;2022-09-29T16:15:59;16.60;99.90
26982;DHT22;14533;50.848;4.380;2022-09-29T16:18:29;16.70;99.90
26982;DHT22;14533;50.848;4.380;2022-09-29T16:20:57;16.60;99.90
26982;DHT22;14533;50.848;4.380;2022-09-29T16:26:08;16.00;99.90
26982;DHT22;14533;50.848;4.380;2022-09-29T16:28:57;15.60;99.90
26982;DHT22;14533;50.848;4.380;2022-09-29T16:31:23;15.50;99.90
26982;DHT22;14533;50.848;4.380;2022-09-29T16:33:56;15.70;99.90
26982;DHT22;14533;50.848;4.380;2022-09-29T16:36:32;15.90;99.90
26982;DHT22;14533;50.848;4.380;2022-09-29T16:38:59;16.10;99.90
26982;DHT22;14533;50.848;4.380;2022-09-29T16:41:33;16.20;99.90
26982;DHT22;14533;50.848;4.380;2022-09-29T16:46:44;15.70;99.90
26982;DHT22;14533;50.848;4.380;2022-09-29T16:51:47;15.40;99.90
26982;DHT22;14533;50.848;4.380;2022-09-29T16:54:15;15.40;99.90
26982;DHT22;14533;50.848;4.380;2022-09-29T16:56:42;15.50;99.90
26982;DHT22;14533;50.848;4.380;2022-09-29T16:59:12;15.50;99.90
26982;DHT22;14533;50.848;4.380;2022-09-29T17:01:41;15.20;99.90
26982;DHT22;14533;50.848;4.380;2022-09-29T17:04:08;15.00;99.90
26982;DHT22;14533;50.848;4.380;2022-09-29T17:06:34;15.00;99.90
26982;DHT22;14533;50.848;4.380;2022-09-29T17:09:00;14.90;99.90
26982;DHT22;14533;50.848;4.380;2022-09-29T17:11:27;14.80;99.90
26982;DHT22;14533;50.848;4.380;2022-09-29T17:13:53;14.80;99.90
26982;DHT22;14533;50.848;4.380;2022-09-29T17:16:22;14.90;99.90
26982;DHT22;14533;50.848;4.380;2022-09-29T17:18:52;15.30;99.90
26982;DHT22;14533;50.848;4.380;2022-09-29T17:21:18;15.50;99.90
26982;DHT22;14533;50.848;4.380;2022-09-29T17:23:45;15.70;99.90
26982;DHT22;14533;50.848;4.380;2022-09-29T17:26:33;15.70;99.90
26982;DHT22;14533;50.848;4.380;2022-09-29T17:29:18;15.80;99.90
26982;DHT22;14533;50.848;4.380;2022-09-29T17:31:44;15.90;99.90
26982;DHT22;14533;50.848;4.380;2022-09-29T17:34:10;15.70;99.90
26982;DHT22;14533;50.848;4.380;2022-09-29T17:36:37;15.80;99.90
26982;DHT22;14533;50.848;4.380;2022-09-29T17:39:03;15.50;99.90
26982;DHT22;14533;50.848;4.380;2022-09-29T17:41:29;15.20;99.90
26982;DHT22;14533;50.848;4.380;2022-09-29T17:43:54;15.10;99.90
26982;DHT22;14533;50.848;4.380;2022-09-29T17:46:20;15.20;99.90
26982;DHT22;14533;50.848;4.380;2022-09-29T17:48:46;15.50;99.90
26982;DHT22;14533;50.848;4.380;2022-09-29T17:51:14;15.30;99.90
26982;DHT22;14533;50.848;4.380;2022-09-29T17:53:42;15.20;99.90
26982;DHT22;14533;50.848;4.380;2022-09-29T17:56:18;15.30;99.90
26982;DHT22;14533;50.848;4.380;2022-09-29T17:58:47;15.20;99.90
26982;DHT22;14533;50.848;4.380;2022-09-29T18:01:14;15.20;99.90
26982;DHT22;14533;50.848;4.380;2022-09-29T18:03:41;15.00;99.90
26982;DHT22;14533;50.848;4.380;2022-09-29T18:06:06;15.20;99.90
26982;DHT22;14533;50.848;4.380;2022-09-29T18:08:32;15.50;99.90
26982;DHT22;14533;50.848;4.380;2022-09-29T18:11:01;15.60;99.90
26982;DHT22;14533;50.848;4.380;2022-09-29T18:13:29;15.50;99.90
26982;DHT22;14533;50.848;4.380;2022-09-29T18:15:57;15.60;99.90
26982;DHT22;14533;50.848;4.380;2022-09-29T18:18:24;15.30;99.90
26982;DHT22;14533;50.848;4.380;2022-09-29T18:20:50;15.10;99.90
26982;DHT22;14533;50.848;4.380;2022-09-29T18:23:17;14.90;99.90
26982;DHT22;14533;50.848;4.380;2022-09-29T18:25:45;15.00;99.90
26982;DHT22;14533;50.848;4.380;2022-09-29T18:28:12;15.40;99.90
26982;DHT22;14533;50.848;4.380;2022-09-29T18:30:40;15.30;99.90
26982;DHT22;14533;50.848;4.380;2022-09-29T18:33:13;15.10;99.90
26982;DHT22;14533;50.848;4.380;2022-09-29T18:35:40;14.90;99.90
26982;DHT22;14533;50.848;4.380;2022-09-29T18:38:06;15.00;99.90
26982;DHT22;14533;50.848;4.380;2022-09-29T18:40:32;14.90;99.90
26982;DHT22;14533;50.848;4.380;2022-09-29T18:42:58;14.90;99.90
26982;DHT22;14533;50.848;4.380;2022-09-29T18:45:30;14.90;99.90
26982;DHT22;14533;50.848;4.380;2022-09-29T18:47:58;14.80;99.90
26982;DHT22;14533;50.848;4.380;2022-09-29T18:50:32;14.80;99.90
26982;DHT22;14533;50.848;4.380;2022-09-29T18:52:59;15.00;99.90
26982;DHT22;14533;50.848;4.380;2022-09-29T18:55:27;15.40;99.90
26982;DHT22;14533;50.848;4.380;2022-09-29T18:57:54;15.60;99.90